PAL1805 RPLL-RPMD
Flight info
| Callsign | PAL1805 |
|---|---|
| Flight time | N/A |
| Altitude | 35000 |
| Route | IPATA2R IPATA B462 MASBA W9A BN W9 RIMAR RIMAR2R |
| Aircraft | A321/M-SDE3FGHIRWY/LB1 |
Departure
| Time | N/A |
|---|---|
| Airport | Ninoy Aquino International Airport (RPLL) |
Arrival
| Time | 2026-04-30 18:39 |
|---|---|
| Airport | Francisco Bangoy International Airport (RPMD) |
| Time | Latitude | Longitude | Altitude | Speed | Heading |
|---|---|---|---|---|---|
| 2026-04-30 17:39 | 12.61108 | 123.33909 | 34900 ft | 467 kts | 131° |
| 2026-04-30 17:42 | 12.39786 | 123.59090 | 34899 ft | 466 kts | 137° |
| 2026-04-30 17:43 | 12.26559 | 123.68757 | 34898 ft | 465 kts | 152° |
| 2026-04-30 17:44 | 12.09382 | 123.78220 | 34891 ft | 465 kts | 152° |
| 2026-04-30 17:47 | 11.83603 | 123.92411 | 34890 ft | 464 kts | 152° |
| 2026-04-30 17:48 | 11.63561 | 124.03426 | 34888 ft | 464 kts | 151° |
| 2026-04-30 17:50 | 11.40651 | 124.15995 | 34877 ft | 464 kts | 151° |
| 2026-04-30 17:52 | 11.23416 | 124.25440 | 34874 ft | 464 kts | 151° |
| 2026-04-30 17:54 | 10.97608 | 124.39479 | 34890 ft | 464 kts | 152° |
| 2026-04-30 17:56 | 10.74653 | 124.51842 | 34896 ft | 463 kts | 151° |
| 2026-04-30 17:58 | 10.57482 | 124.61159 | 34886 ft | 462 kts | 151° |
| 2026-04-30 18:00 | 10.34698 | 124.73511 | 34881 ft | 461 kts | 151° |
| 2026-04-30 18:01 | 10.20479 | 124.81212 | 34879 ft | 459 kts | 151° |
| 2026-04-30 18:02 | 10.03499 | 124.90397 | 34877 ft | 458 kts | 151° |
| 2026-04-30 18:04 | 9.86543 | 124.99562 | 34878 ft | 457 kts | 151° |
| 2026-04-30 18:06 | 9.63938 | 125.11749 | 34872 ft | 457 kts | 151° |
| 2026-04-30 18:08 | 9.44081 | 125.22344 | 34868 ft | 458 kts | 151° |
| 2026-04-30 18:09 | 9.32922 | 125.28288 | 34871 ft | 441 kts | 150° |
| 2026-04-30 18:10 | 9.22020 | 125.34099 | 34867 ft | 442 kts | 150° |
| 2026-04-30 18:11 | 9.02853 | 125.44276 | 34113 ft | 439 kts | 152° |
| 2026-04-30 18:12 | 8.94301 | 125.47613 | 32246 ft | 438 kts | 161° |
| 2026-04-30 18:13 | 8.88286 | 125.48977 | 30787 ft | 444 kts | 168° |
| 2026-04-30 18:13 | 8.79989 | 125.49924 | 29124 ft | 441 kts | 172° |
| 2026-04-30 18:14 | 8.72853 | 125.50640 | 28060 ft | 430 kts | 172° |
| 2026-04-30 18:15 | 8.63993 | 125.51541 | 26663 ft | 419 kts | 172° |
| 2026-04-30 18:15 | 8.55327 | 125.52422 | 25227 ft | 411 kts | 172° |
| 2026-04-30 18:16 | 8.49602 | 125.52979 | 24273 ft | 405 kts | 172° |
| 2026-04-30 18:16 | 8.43977 | 125.53476 | 23350 ft | 400 kts | 172° |
| 2026-04-30 18:17 | 8.41185 | 125.53723 | 22900 ft | 398 kts | 172° |
| 2026-04-30 18:17 | 8.38433 | 125.53968 | 22454 ft | 395 kts | 172° |
| 2026-04-30 18:17 | 8.32931 | 125.54460 | 21566 ft | 391 kts | 172° |
| 2026-04-30 18:18 | 8.30221 | 125.54704 | 21125 ft | 389 kts | 172° |
| 2026-04-30 18:18 | 8.27529 | 125.54947 | 20682 ft | 387 kts | 172° |
| 2026-04-30 18:18 | 8.24859 | 125.55186 | 20233 ft | 386 kts | 172° |
| 2026-04-30 18:18 | 8.22146 | 125.55430 | 19767 ft | 385 kts | 172° |
| 2026-04-30 18:19 | 8.19478 | 125.55669 | 19297 ft | 384 kts | 172° |
| 2026-04-30 18:19 | 8.16798 | 125.55910 | 18817 ft | 384 kts | 173° |
| 2026-04-30 18:19 | 8.14159 | 125.56146 | 18345 ft | 383 kts | 173° |
| 2026-04-30 18:19 | 8.11461 | 125.56388 | 17861 ft | 382 kts | 173° |
| 2026-04-30 18:20 | 8.08792 | 125.56627 | 17379 ft | 382 kts | 173° |
| 2026-04-30 18:20 | 8.06143 | 125.56865 | 16907 ft | 381 kts | 173° |
| 2026-04-30 18:20 | 8.03489 | 125.57101 | 16437 ft | 380 kts | 173° |
| 2026-04-30 18:20 | 8.00839 | 125.57339 | 15992 ft | 377 kts | 172° |
| 2026-04-30 18:21 | 7.98225 | 125.57574 | 15520 ft | 376 kts | 173° |
| 2026-04-30 18:21 | 7.95597 | 125.57811 | 15046 ft | 375 kts | 173° |
| 2026-04-30 18:21 | 7.92962 | 125.58053 | 14575 ft | 373 kts | 172° |
| 2026-04-30 18:21 | 7.90391 | 125.58289 | 14116 ft | 371 kts | 172° |
| 2026-04-30 18:22 | 7.87771 | 125.58530 | 13642 ft | 370 kts | 172° |
| 2026-04-30 18:22 | 7.82625 | 125.59004 | 12696 ft | 366 kts | 172° |
| 2026-04-30 18:22 | 7.80084 | 125.59238 | 12215 ft | 365 kts | 172° |
| 2026-04-30 18:23 | 7.77562 | 125.59470 | 11737 ft | 363 kts | 172° |
| 2026-04-30 18:23 | 7.75002 | 125.59707 | 11247 ft | 362 kts | 172° |
| 2026-04-30 18:23 | 7.72488 | 125.59939 | 10774 ft | 361 kts | 172° |
| 2026-04-30 18:23 | 7.69993 | 125.60169 | 10463 ft | 354 kts | 172° |
| 2026-04-30 18:24 | 7.65192 | 125.60609 | 10134 ft | 332 kts | 172° |
| 2026-04-30 18:24 | 7.62898 | 125.60820 | 9979 ft | 322 kts | 172° |
| 2026-04-30 18:24 | 7.60666 | 125.61025 | 9673 ft | 318 kts | 172° |
| 2026-04-30 18:25 | 7.58463 | 125.61229 | 9382 ft | 313 kts | 171° |
| 2026-04-30 18:25 | 7.54155 | 125.61629 | 8836 ft | 304 kts | 171° |
| 2026-04-30 18:25 | 7.52053 | 125.61822 | 8566 ft | 300 kts | 171° |
| 2026-04-30 18:26 | 7.47922 | 125.62204 | 8038 ft | 291 kts | 171° |
| 2026-04-30 18:26 | 7.45923 | 125.62388 | 7760 ft | 288 kts | 172° |
| 2026-04-30 18:26 | 7.43910 | 125.62573 | 7448 ft | 286 kts | 172° |
| 2026-04-30 18:27 | 7.39914 | 125.62939 | 6784 ft | 284 kts | 172° |
| 2026-04-30 18:27 | 7.37940 | 125.63120 | 6457 ft | 283 kts | 172° |
| 2026-04-30 18:28 | 7.34011 | 125.63480 | 5965 ft | 280 kts | 172° |
| 2026-04-30 18:28 | 7.32041 | 125.63660 | 5963 ft | 282 kts | 172° |
| 2026-04-30 18:28 | 7.28100 | 125.64020 | 5954 ft | 283 kts | 172° |
| 2026-04-30 18:29 | 7.26140 | 125.64199 | 5961 ft | 283 kts | 172° |
| 2026-04-30 18:29 | 7.20181 | 125.64748 | 5208 ft | 287 kts | 172° |
| 2026-04-30 18:30 | 7.16162 | 125.65117 | 4549 ft | 284 kts | 173° |
| 2026-04-30 18:30 | 7.12239 | 125.65007 | 4003 ft | 281 kts | 197° |
| 2026-04-30 18:31 | 7.10436 | 125.64270 | 3956 ft | 275 kts | 204° |
| 2026-04-30 18:31 | 7.06969 | 125.62668 | 3942 ft | 264 kts | 204° |
| 2026-04-30 18:32 | 7.03715 | 125.61183 | 3947 ft | 249 kts | 204° |
| 2026-04-30 18:32 | 7.02146 | 125.60477 | 3937 ft | 248 kts | 204° |
| 2026-04-30 18:32 | 6.99074 | 125.59098 | 3932 ft | 233 kts | 204° |
| 2026-04-30 18:33 | 6.97590 | 125.58421 | 3939 ft | 232 kts | 207° |
| 2026-04-30 18:33 | 6.95953 | 125.55815 | 3932 ft | 231 kts | 272° |
| 2026-04-30 18:33 | 6.96357 | 125.54271 | 3929 ft | 228 kts | 303° |
| 2026-04-30 18:34 | 6.97420 | 125.53113 | 3940 ft | 222 kts | 321° |
| 2026-04-30 18:34 | 6.99727 | 125.51333 | 3679 ft | 200 kts | 336° |
| 2026-04-30 18:34 | 7.01084 | 125.51287 | 3319 ft | 194 kts | 23° |
| 2026-04-30 18:35 | 7.02063 | 125.52168 | 3038 ft | 189 kts | 53° |
| 2026-04-30 18:35 | 7.02844 | 125.53202 | 2811 ft | 182 kts | 51° |
| 2026-04-30 18:35 | 7.03649 | 125.54191 | 2445 ft | 178 kts | 50° |
| 2026-04-30 18:36 | 7.05146 | 125.55962 | 1962 ft | 153 kts | 49° |
| 2026-04-30 18:36 | 7.05824 | 125.56754 | 1765 ft | 148 kts | 49° |
| 2026-04-30 18:36 | 7.07165 | 125.58315 | 1404 ft | 147 kts | 49° |
| 2026-04-30 18:37 | 7.07839 | 125.59098 | 1211 ft | 146 kts | 49° |
| 2026-04-30 18:37 | 7.08508 | 125.59875 | 1023 ft | 146 kts | 49° |
| 2026-04-30 18:37 | 7.09175 | 125.60648 | 828 ft | 145 kts | 48° |
| 2026-04-30 18:37 | 7.09837 | 125.61417 | 638 ft | 145 kts | 48° |
| 2026-04-30 18:38 | 7.10488 | 125.62183 | 492 ft | 144 kts | 49° |
| 2026-04-30 18:38 | 7.11150 | 125.62952 | 329 ft | 145 kts | 49° |
| 2026-04-30 18:38 | 7.11804 | 125.63713 | 128 ft | 143 kts | 47° |
| 2026-04-30 18:38 | 7.12411 | 125.64412 | 113 ft | 109 kts | 48° |
| 2026-04-30 18:39 | 7.12726 | 125.64781 | 113 ft | 32 kts | 49° |
| 2026-04-30 18:39 | 7.12806 | 125.64874 | 113 ft | 10 kts | 50° |
| 2026-04-30 18:39 | 7.12845 | 125.64917 | 113 ft | 6 kts | 36° |
| 2026-04-30 18:39 | 7.12888 | 125.64912 | 113 ft | 7 kts | 322° |
| 2026-04-30 18:40 | 7.12929 | 125.64878 | 113 ft | 8 kts | 319° |
| 2026-04-30 18:40 | 7.12975 | 125.64838 | 113 ft | 9 kts | 319° |
| 2026-04-30 18:40 | 7.13014 | 125.64794 | 113 ft | 8 kts | 284° |
| 2026-04-30 18:40 | 7.12990 | 125.64742 | 113 ft | 9 kts | 229° |
| 2026-04-30 18:41 | 7.12946 | 125.64690 | 113 ft | 10 kts | 229° |
| 2026-04-30 18:41 | 7.12935 | 125.64654 | 113 ft | 5 kts | 298° |
| 2026-04-30 18:41 | 7.12965 | 125.64623 | 113 ft | 6 kts | 319° |
| 2026-04-30 18:41 | 7.12987 | 125.64604 | 113 ft | 2 kts | 319° |
| 2026-04-30 18:42 | 7.12988 | 125.64603 | 113 ft | 0 kts | 319° |